createdAt,value
2022-08-10T00:03:25.576Z,18.56
2022-08-10T00:18:35.863Z,18.50
2022-08-10T00:33:41.806Z,18.31
2022-08-10T00:48:47.357Z,18.19
2022-08-10T01:04:36.777Z,18.13
2022-08-10T01:19:51.400Z,18.00
2022-08-10T01:35:01.840Z,17.88
2022-08-10T01:50:11.479Z,17.81
2022-08-10T02:05:17.927Z,17.69
2022-08-10T02:20:26.539Z,17.63
2022-08-10T02:35:54.984Z,17.44
2022-08-10T02:51:08.876Z,17.31
2022-08-10T03:06:20.939Z,17.19
2022-08-10T03:21:27.634Z,17.13
2022-08-10T03:36:43.262Z,16.94
2022-08-10T03:51:51.884Z,16.88
2022-08-10T04:06:59.465Z,16.88
2022-08-10T04:22:10.057Z,16.69
2022-08-10T04:37:17.473Z,16.63
2022-08-10T04:52:22.959Z,16.63
2022-08-10T05:07:31.015Z,16.69
2022-08-10T05:22:43.951Z,16.94
2022-08-10T05:38:10.295Z,17.19
2022-08-10T05:53:58.888Z,17.44
2022-08-10T06:08:46.194Z,17.81
2022-08-10T06:23:53.591Z,18.25
2022-08-10T06:39:11.348Z,18.75
2022-08-10T06:54:28.813Z,19.13
2022-08-10T07:09:37.362Z,19.94
2022-08-10T07:24:45.289Z,20.56
2022-08-10T07:40:02.390Z,21.25
2022-08-10T07:55:15.206Z,21.63
2022-08-10T08:10:24.299Z,21.81
2022-08-10T08:25:30.752Z,22.25
2022-08-10T08:40:38.070Z,22.63
2022-08-10T08:56:05.480Z,23.00
2022-08-10T09:11:27.848Z,23.00
2022-08-10T09:26:44.285Z,22.88
2022-08-10T09:41:58.327Z,22.81
2022-08-10T09:57:43.085Z,23.06
2022-08-10T10:12:51.941Z,23.19
2022-08-10T10:28:14.735Z,23.88
2022-08-10T10:43:38.817Z,23.50
2022-08-10T10:59:53.946Z,23.63
2022-08-10T11:14:37.663Z,23.63
2022-08-10T11:29:53.803Z,23.63
2022-08-10T11:45:05.107Z,24.25
2022-08-10T12:00:12.772Z,25.13
2022-08-10T12:15:27.043Z,25.13
2022-08-10T12:30:37.938Z,25.31
2022-08-10T12:46:01.935Z,25.38
2022-08-10T13:01:16.640Z,25.19
2022-08-10T13:16:25.230Z,25.00
2022-08-10T13:32:04.343Z,25.19
2022-08-10T13:47:03.380Z,24.88
2022-08-10T14:02:09.272Z,24.81
2022-08-10T14:17:15.517Z,24.50
2022-08-10T14:32:26.660Z,24.13
2022-08-10T14:47:53.347Z,23.88
2022-08-10T15:03:03.906Z,23.56
2022-08-10T15:18:17.945Z,23.38
2022-08-10T15:34:04.977Z,23.25
2022-08-10T15:49:17.194Z,23.00
2022-08-10T16:04:31.839Z,22.88
2022-08-10T16:19:39.713Z,22.63
2022-08-10T16:34:51.017Z,22.56
2022-08-10T16:49:58.487Z,22.31
2022-08-10T17:05:07.116Z,22.13
2022-08-10T17:20:31.002Z,22.19
2022-08-10T17:35:40.023Z,22.00
2022-08-10T17:50:51.485Z,21.81
2022-08-10T18:05:59.422Z,21.81
2022-08-10T18:21:11.190Z,21.38
2022-08-10T18:36:19.033Z,21.31
2022-08-10T18:51:31.979Z,21.25
2022-08-10T19:07:06.763Z,21.13
2022-08-10T19:22:22.343Z,21.00
2022-08-10T19:37:36.095Z,20.88
2022-08-10T19:52:49.176Z,20.75
2022-08-10T20:08:02.825Z,20.50
2022-08-10T20:23:17.121Z,20.44
2022-08-10T20:38:27.176Z,20.31
2022-08-10T20:53:37.425Z,20.13
2022-08-10T21:08:53.110Z,19.94
2022-08-10T21:24:05.905Z,19.88
2022-08-10T21:55:06.639Z,19.38
2022-08-10T22:10:32.840Z,19.13
2022-08-10T22:26:08.638Z,18.81
2022-08-10T22:31:25.013Z,19.75
2022-08-10T22:41:48.807Z,18.75
2022-08-10T22:57:23.046Z,18.63
2022-08-10T23:12:36.561Z,18.50
2022-08-10T23:27:44.945Z,18.25
2022-08-10T23:42:53.136Z,18.19
2022-08-10T23:58:04.883Z,18.13
